sensor_id;sensor_type;location;lat;lon;timestamp;P1;durP1;ratioP1;P2;durP2;ratioP2
18929;SDS011;43305;52.186;5.598;2022-08-03T00:02:09;8.93;;;2.00;;
18929;SDS011;43305;52.186;5.598;2022-08-03T00:04:37;7.57;;;1.60;;
18929;SDS011;43305;52.186;5.598;2022-08-03T00:07:04;5.93;;;1.77;;
18929;SDS011;43305;52.186;5.598;2022-08-03T00:09:31;5.90;;;1.80;;
18929;SDS011;43305;52.186;5.598;2022-08-03T00:11:58;5.43;;;1.73;;
18929;SDS011;43305;52.186;5.598;2022-08-03T00:14:25;6.50;;;1.75;;
18929;SDS011;43305;52.186;5.598;2022-08-03T00:16:52;5.15;;;1.70;;
18929;SDS011;43305;52.186;5.598;2022-08-03T00:19:23;9.23;;;1.83;;
18929;SDS011;43305;52.186;5.598;2022-08-03T00:21:58;5.95;;;1.52;;
18929;SDS011;43305;52.186;5.598;2022-08-03T00:24:25;6.38;;;1.52;;
18929;SDS011;43305;52.186;5.598;2022-08-03T00:26:52;6.60;;;1.63;;
18929;SDS011;43305;52.186;5.598;2022-08-03T00:29:19;7.65;;;1.67;;
18929;SDS011;43305;52.186;5.598;2022-08-03T00:31:46;7.50;;;1.70;;
18929;SDS011;43305;52.186;5.598;2022-08-03T00:34:14;6.45;;;2.13;;
18929;SDS011;43305;52.186;5.598;2022-08-03T00:36:41;5.07;;;1.60;;
18929;SDS011;43305;52.186;5.598;2022-08-03T00:39:09;8.15;;;1.75;;
18929;SDS011;43305;52.186;5.598;2022-08-03T00:41:36;4.68;;;1.70;;
18929;SDS011;43305;52.186;5.598;2022-08-03T00:44:03;5.90;;;1.80;;
18929;SDS011;43305;52.186;5.598;2022-08-03T00:46:30;5.32;;;1.60;;
18929;SDS011;43305;52.186;5.598;2022-08-03T00:48:57;7.95;;;2.10;;
18929;SDS011;43305;52.186;5.598;2022-08-03T00:51:24;6.93;;;1.90;;
18929;SDS011;43305;52.186;5.598;2022-08-03T00:53:51;9.85;;;2.42;;
18929;SDS011;43305;52.186;5.598;2022-08-03T00:56:23;5.28;;;2.00;;
18929;SDS011;43305;52.186;5.598;2022-08-03T00:58:51;7.05;;;2.10;;
18929;SDS011;43305;52.186;5.598;2022-08-03T01:01:21;7.10;;;1.92;;
18929;SDS011;43305;52.186;5.598;2022-08-03T01:03:48;6.45;;;1.73;;
18929;SDS011;43305;52.186;5.598;2022-08-03T01:06:16;7.90;;;2.00;;
18929;SDS011;43305;52.186;5.598;2022-08-03T01:08:47;7.28;;;2.13;;
18929;SDS011;43305;52.186;5.598;2022-08-03T01:11:23;6.38;;;2.00;;
18929;SDS011;43305;52.186;5.598;2022-08-03T01:14:00;6.55;;;2.30;;
18929;SDS011;43305;52.186;5.598;2022-08-03T01:16:32;7.78;;;2.22;;
18929;SDS011;43305;52.186;5.598;2022-08-03T01:19:11;6.97;;;2.15;;
18929;SDS011;43305;52.186;5.598;2022-08-03T01:21:56;5.85;;;2.15;;
18929;SDS011;43305;52.186;5.598;2022-08-03T01:24:34;4.97;;;1.88;;
18929;SDS011;43305;52.186;5.598;2022-08-03T01:27:11;7.85;;;2.13;;
18929;SDS011;43305;52.186;5.598;2022-08-03T01:29:49;9.95;;;2.28;;
18929;SDS011;43305;52.186;5.598;2022-08-03T01:32:24;5.53;;;2.00;;
18929;SDS011;43305;52.186;5.598;2022-08-03T01:34:58;7.47;;;2.38;;
18929;SDS011;43305;52.186;5.598;2022-08-03T01:37:30;5.05;;;2.20;;
18929;SDS011;43305;52.186;5.598;2022-08-03T01:40:02;6.88;;;2.33;;
18929;SDS011;43305;52.186;5.598;2022-08-03T01:42:31;7.13;;;2.22;;
18929;SDS011;43305;52.186;5.598;2022-08-03T01:45:01;9.15;;;2.70;;
18929;SDS011;43305;52.186;5.598;2022-08-03T01:47:29;11.85;;;2.35;;
18929;SDS011;43305;52.186;5.598;2022-08-03T01:49:57;4.78;;;2.30;;
18929;SDS011;43305;52.186;5.598;2022-08-03T01:52:27;7.70;;;2.95;;
18929;SDS011;43305;52.186;5.598;2022-08-03T01:54:54;9.25;;;3.10;;
18929;SDS011;43305;52.186;5.598;2022-08-03T01:57:23;7.53;;;2.53;;
18929;SDS011;43305;52.186;5.598;2022-08-03T01:59:52;9.10;;;3.00;;
18929;SDS011;43305;52.186;5.598;2022-08-03T02:02:22;6.82;;;2.53;;
18929;SDS011;43305;52.186;5.598;2022-08-03T02:04:51;8.77;;;3.05;;
18929;SDS011;43305;52.186;5.598;2022-08-03T02:07:20;9.48;;;2.92;;
18929;SDS011;43305;52.186;5.598;2022-08-03T02:09:50;8.00;;;2.65;;
18929;SDS011;43305;52.186;5.598;2022-08-03T02:12:17;6.00;;;2.60;;
18929;SDS011;43305;52.186;5.598;2022-08-03T02:14:45;9.98;;;2.78;;
18929;SDS011;43305;52.186;5.598;2022-08-03T02:17:14;7.80;;;3.10;;
18929;SDS011;43305;52.186;5.598;2022-08-03T02:19:43;10.80;;;3.42;;
18929;SDS011;43305;52.186;5.598;2022-08-03T02:22:10;8.52;;;3.13;;
18929;SDS011;43305;52.186;5.598;2022-08-03T02:24:41;10.02;;;3.38;;
18929;SDS011;43305;52.186;5.598;2022-08-03T02:27:09;8.70;;;3.08;;
18929;SDS011;43305;52.186;5.598;2022-08-03T02:29:44;10.00;;;3.33;;
18929;SDS011;43305;52.186;5.598;2022-08-03T02:32:16;9.80;;;3.03;;
18929;SDS011;43305;52.186;5.598;2022-08-03T02:34:49;9.60;;;3.10;;
18929;SDS011;43305;52.186;5.598;2022-08-03T02:37:18;6.28;;;2.90;;
18929;SDS011;43305;52.186;5.598;2022-08-03T02:39:49;12.10;;;3.38;;
18929;SDS011;43305;52.186;5.598;2022-08-03T02:42:18;12.32;;;3.75;;
18929;SDS011;43305;52.186;5.598;2022-08-03T02:44:48;10.45;;;3.30;;
18929;SDS011;43305;52.186;5.598;2022-08-03T02:47:18;9.93;;;3.15;;
18929;SDS011;43305;52.186;5.598;2022-08-03T02:49:46;13.25;;;3.40;;
18929;SDS011;43305;52.186;5.598;2022-08-03T02:52:16;9.63;;;3.22;;
18929;SDS011;43305;52.186;5.598;2022-08-03T02:54:44;9.02;;;3.13;;
18929;SDS011;43305;52.186;5.598;2022-08-03T02:57:12;12.65;;;3.20;;
18929;SDS011;43305;52.186;5.598;2022-08-03T02:59:43;9.88;;;3.20;;
18929;SDS011;43305;52.186;5.598;2022-08-03T03:02:10;10.57;;;3.15;;
18929;SDS011;43305;52.186;5.598;2022-08-03T03:04:39;13.93;;;3.33;;
18929;SDS011;43305;52.186;5.598;2022-08-03T03:07:08;7.90;;;3.13;;
18929;SDS011;43305;52.186;5.598;2022-08-03T03:09:37;11.40;;;3.38;;
18929;SDS011;43305;52.186;5.598;2022-08-03T03:12:05;10.45;;;3.10;;
18929;SDS011;43305;52.186;5.598;2022-08-03T03:14:35;11.77;;;3.55;;
18929;SDS011;43305;52.186;5.598;2022-08-03T03:17:02;11.88;;;3.10;;
18929;SDS011;43305;52.186;5.598;2022-08-03T03:19:31;9.73;;;3.35;;
18929;SDS011;43305;52.186;5.598;2022-08-03T03:21:59;12.40;;;3.50;;
18929;SDS011;43305;52.186;5.598;2022-08-03T03:24:28;6.95;;;2.88;;
18929;SDS011;43305;52.186;5.598;2022-08-03T03:26:57;8.55;;;3.08;;
18929;SDS011;43305;52.186;5.598;2022-08-03T03:29:25;13.00;;;3.53;;
18929;SDS011;43305;52.186;5.598;2022-08-03T03:31:52;9.90;;;3.63;;
18929;SDS011;43305;52.186;5.598;2022-08-03T03:34:21;13.68;;;3.58;;
18929;SDS011;43305;52.186;5.598;2022-08-03T03:36:48;8.93;;;3.88;;
18929;SDS011;43305;52.186;5.598;2022-08-03T03:39:15;13.23;;;3.97;;
18929;SDS011;43305;52.186;5.598;2022-08-03T03:41:43;7.53;;;3.15;;
18929;SDS011;43305;52.186;5.598;2022-08-03T03:44:11;8.73;;;4.00;;
18929;SDS011;43305;52.186;5.598;2022-08-03T03:46:38;15.63;;;3.70;;
18929;SDS011;43305;52.186;5.598;2022-08-03T03:49:05;15.90;;;3.60;;
18929;SDS011;43305;52.186;5.598;2022-08-03T03:51:32;11.25;;;3.83;;
18929;SDS011;43305;52.186;5.598;2022-08-03T03:54:00;11.57;;;4.00;;
18929;SDS011;43305;52.186;5.598;2022-08-03T03:56:28;12.10;;;3.88;;
18929;SDS011;43305;52.186;5.598;2022-08-03T03:58:57;13.45;;;3.97;;
18929;SDS011;43305;52.186;5.598;2022-08-03T04:01:24;14.40;;;4.32;;
18929;SDS011;43305;52.186;5.598;2022-08-03T04:03:51;13.07;;;4.40;;
18929;SDS011;43305;52.186;5.598;2022-08-03T04:06:19;11.35;;;4.05;;
18929;SDS011;43305;52.186;5.598;2022-08-03T04:09:00;9.77;;;4.07;;
18929;SDS011;43305;52.186;5.598;2022-08-03T04:11:42;12.80;;;3.88;;
18929;SDS011;43305;52.186;5.598;2022-08-03T04:14:16;10.13;;;3.83;;
18929;SDS011;43305;52.186;5.598;2022-08-03T04:16:49;11.43;;;3.80;;
18929;SDS011;43305;52.186;5.598;2022-08-03T04:19:18;12.38;;;4.18;;
18929;SDS011;43305;52.186;5.598;2022-08-03T04:21:50;11.85;;;3.72;;
18929;SDS011;43305;52.186;5.598;2022-08-03T04:24:21;13.85;;;3.80;;
18929;SDS011;43305;52.186;5.598;2022-08-03T04:26:50;12.82;;;3.90;;
18929;SDS011;43305;52.186;5.598;2022-08-03T04:29:20;12.88;;;3.75;;
18929;SDS011;43305;52.186;5.598;2022-08-03T04:31:49;12.82;;;3.75;;
18929;SDS011;43305;52.186;5.598;2022-08-03T04:34:18;11.10;;;3.53;;
18929;SDS011;43305;52.186;5.598;2022-08-03T04:36:47;18.77;;;3.72;;
18929;SDS011;43305;52.186;5.598;2022-08-03T04:39:17;10.50;;;3.22;;
18929;SDS011;43305;52.186;5.598;2022-08-03T04:41:50;15.95;;;3.85;;
18929;SDS011;43305;52.186;5.598;2022-08-03T04:44:20;12.60;;;3.47;;
18929;SDS011;43305;52.186;5.598;2022-08-03T04:46:48;13.68;;;3.30;;
18929;SDS011;43305;52.186;5.598;2022-08-03T04:49:16;17.17;;;3.40;;
18929;SDS011;43305;52.186;5.598;2022-08-03T04:51:45;9.63;;;3.50;;
18929;SDS011;43305;52.186;5.598;2022-08-03T04:54:13;14.95;;;4.03;;
18929;SDS011;43305;52.186;5.598;2022-08-03T04:56:40;10.60;;;3.80;;
18929;SDS011;43305;52.186;5.598;2022-08-03T04:59:07;13.35;;;3.33;;
18929;SDS011;43305;52.186;5.598;2022-08-03T05:01:35;14.00;;;3.42;;
18929;SDS011;43305;52.186;5.598;2022-08-03T05:04:04;11.65;;;3.67;;
18929;SDS011;43305;52.186;5.598;2022-08-03T05:06:31;18.85;;;4.20;;
18929;SDS011;43305;52.186;5.598;2022-08-03T05:08:57;15.68;;;3.92;;
18929;SDS011;43305;52.186;5.598;2022-08-03T05:11:25;16.85;;;4.53;;
18929;SDS011;43305;52.186;5.598;2022-08-03T05:13:53;19.00;;;4.53;;
18929;SDS011;43305;52.186;5.598;2022-08-03T05:16:20;12.18;;;4.00;;
18929;SDS011;43305;52.186;5.598;2022-08-03T05:18:48;22.95;;;4.93;;
18929;SDS011;43305;52.186;5.598;2022-08-03T05:21:15;13.52;;;3.58;;
18929;SDS011;43305;52.186;5.598;2022-08-03T05:23:42;15.70;;;4.20;;
18929;SDS011;43305;52.186;5.598;2022-08-03T05:26:09;14.90;;;4.18;;
18929;SDS011;43305;52.186;5.598;2022-08-03T05:28:36;13.10;;;4.05;;
18929;SDS011;43305;52.186;5.598;2022-08-03T05:31:03;12.88;;;4.25;;
18929;SDS011;43305;52.186;5.598;2022-08-03T05:33:30;14.77;;;4.07;;
18929;SDS011;43305;52.186;5.598;2022-08-03T05:35:58;14.88;;;3.95;;
18929;SDS011;43305;52.186;5.598;2022-08-03T05:38:25;11.43;;;3.58;;
18929;SDS011;43305;52.186;5.598;2022-08-03T05:40:53;13.90;;;4.20;;
18929;SDS011;43305;52.186;5.598;2022-08-03T05:43:20;17.20;;;4.60;;
18929;SDS011;43305;52.186;5.598;2022-08-03T05:45:47;14.38;;;4.25;;
18929;SDS011;43305;52.186;5.598;2022-08-03T05:48:14;16.02;;;4.78;;
18929;SDS011;43305;52.186;5.598;2022-08-03T05:50:41;19.55;;;4.18;;
18929;SDS011;43305;52.186;5.598;2022-08-03T05:53:09;23.73;;;4.10;;
18929;SDS011;43305;52.186;5.598;2022-08-03T05:55:36;16.50;;;4.10;;
18929;SDS011;43305;52.186;5.598;2022-08-03T05:58:03;11.65;;;3.88;;
18929;SDS011;43305;52.186;5.598;2022-08-03T06:00:30;15.15;;;4.53;;
18929;SDS011;43305;52.186;5.598;2022-08-03T06:02:57;14.30;;;4.07;;
18929;SDS011;43305;52.186;5.598;2022-08-03T06:05:24;17.52;;;4.47;;
18929;SDS011;43305;52.186;5.598;2022-08-03T06:07:52;13.70;;;4.13;;
18929;SDS011;43305;52.186;5.598;2022-08-03T06:10:21;13.85;;;4.40;;
18929;SDS011;43305;52.186;5.598;2022-08-03T06:12:48;18.95;;;4.50;;
18929;SDS011;43305;52.186;5.598;2022-08-03T06:15:15;17.45;;;4.65;;
18929;SDS011;43305;52.186;5.598;2022-08-03T06:17:44;12.85;;;4.22;;
18929;SDS011;43305;52.186;5.598;2022-08-03T06:20:11;13.05;;;4.13;;
18929;SDS011;43305;52.186;5.598;2022-08-03T06:22:38;20.80;;;4.65;;
18929;SDS011;43305;52.186;5.598;2022-08-03T06:25:05;20.38;;;4.65;;
18929;SDS011;43305;52.186;5.598;2022-08-03T06:27:34;16.48;;;4.40;;
18929;SDS011;43305;52.186;5.598;2022-08-03T06:30:04;16.35;;;4.90;;
18929;SDS011;43305;52.186;5.598;2022-08-03T06:32:34;16.45;;;4.30;;
18929;SDS011;43305;52.186;5.598;2022-08-03T06:35:01;18.15;;;4.68;;
18929;SDS011;43305;52.186;5.598;2022-08-03T06:37:28;12.10;;;3.92;;
18929;SDS011;43305;52.186;5.598;2022-08-03T06:39:55;14.35;;;4.68;;
18929;SDS011;43305;52.186;5.598;2022-08-03T06:42:22;18.33;;;4.43;;
18929;SDS011;43305;52.186;5.598;2022-08-03T06:44:50;17.77;;;4.30;;
18929;SDS011;43305;52.186;5.598;2022-08-03T06:47:17;14.15;;;4.20;;
18929;SDS011;43305;52.186;5.598;2022-08-03T06:49:44;13.68;;;4.32;;
18929;SDS011;43305;52.186;5.598;2022-08-03T06:52:11;12.27;;;2.40;;
18929;SDS011;43305;52.186;5.598;2022-08-03T06:54:38;17.85;;;3.00;;
18929;SDS011;43305;52.186;5.598;2022-08-03T06:57:05;10.30;;;2.33;;
18929;SDS011;43305;52.186;5.598;2022-08-03T06:59:33;10.80;;;2.60;;
18929;SDS011;43305;52.186;5.598;2022-08-03T07:02:02;10.38;;;2.78;;
18929;SDS011;43305;52.186;5.598;2022-08-03T07:04:33;16.35;;;2.95;;
18929;SDS011;43305;52.186;5.598;2022-08-03T07:07:00;15.07;;;2.80;;
18929;SDS011;43305;52.186;5.598;2022-08-03T07:09:27;16.05;;;2.65;;
18929;SDS011;43305;52.186;5.598;2022-08-03T07:11:54;14.70;;;3.13;;
18929;SDS011;43305;52.186;5.598;2022-08-03T07:14:21;18.67;;;3.70;;
18929;SDS011;43305;52.186;5.598;2022-08-03T07:16:50;13.55;;;2.45;;
18929;SDS011;43305;52.186;5.598;2022-08-03T07:19:18;17.45;;;3.17;;
18929;SDS011;43305;52.186;5.598;2022-08-03T07:21:47;16.80;;;3.05;;
18929;SDS011;43305;52.186;5.598;2022-08-03T07:24:13;13.00;;;3.20;;
18929;SDS011;43305;52.186;5.598;2022-08-03T07:26:40;12.02;;;3.40;;
18929;SDS011;43305;52.186;5.598;2022-08-03T07:29:07;11.50;;;2.70;;
18929;SDS011;43305;52.186;5.598;2022-08-03T07:31:34;8.95;;;3.00;;
18929;SDS011;43305;52.186;5.598;2022-08-03T07:34:00;17.95;;;3.33;;
18929;SDS011;43305;52.186;5.598;2022-08-03T07:36:29;16.40;;;3.33;;
18929;SDS011;43305;52.186;5.598;2022-08-03T07:38:56;15.05;;;3.50;;
18929;SDS011;43305;52.186;5.598;2022-08-03T07:41:24;11.43;;;3.55;;
18929;SDS011;43305;52.186;5.598;2022-08-03T07:43:51;18.92;;;3.30;;
18929;SDS011;43305;52.186;5.598;2022-08-03T07:46:19;13.02;;;3.28;;
18929;SDS011;43305;52.186;5.598;2022-08-03T07:48:45;14.05;;;3.58;;
18929;SDS011;43305;52.186;5.598;2022-08-03T07:51:12;18.95;;;3.70;;
18929;SDS011;43305;52.186;5.598;2022-08-03T07:53:43;11.55;;;2.88;;
18929;SDS011;43305;52.186;5.598;2022-08-03T07:56:10;13.73;;;3.08;;
18929;SDS011;43305;52.186;5.598;2022-08-03T07:58:37;16.25;;;3.63;;
18929;SDS011;43305;52.186;5.598;2022-08-03T08:01:04;14.02;;;3.40;;
18929;SDS011;43305;52.186;5.598;2022-08-03T08:03:31;18.65;;;3.55;;
18929;SDS011;43305;52.186;5.598;2022-08-03T08:05:58;15.40;;;3.17;;
18929;SDS011;43305;52.186;5.598;2022-08-03T08:08:25;12.27;;;2.83;;
18929;SDS011;43305;52.186;5.598;2022-08-03T08:10:53;17.33;;;2.83;;
18929;SDS011;43305;52.186;5.598;2022-08-03T08:13:20;13.52;;;3.13;;
18929;SDS011;43305;52.186;5.598;2022-08-03T08:15:50;9.07;;;2.70;;
18929;SDS011;43305;52.186;5.598;2022-08-03T08:18:17;19.48;;;3.13;;
18929;SDS011;43305;52.186;5.598;2022-08-03T08:20:44;10.15;;;2.60;;
18929;SDS011;43305;52.186;5.598;2022-08-03T08:23:10;12.00;;;2.83;;
18929;SDS011;43305;52.186;5.598;2022-08-03T08:25:37;15.23;;;2.90;;
18929;SDS011;43305;52.186;5.598;2022-08-03T08:28:06;11.90;;;2.55;;
18929;SDS011;43305;52.186;5.598;2022-08-03T08:30:32;14.15;;;2.95;;
18929;SDS011;43305;52.186;5.598;2022-08-03T08:33:00;8.45;;;2.58;;
18929;SDS011;43305;52.186;5.598;2022-08-03T08:35:30;15.52;;;3.20;;
18929;SDS011;43305;52.186;5.598;2022-08-03T08:37:58;12.65;;;2.78;;
18929;SDS011;43305;52.186;5.598;2022-08-03T08:40:25;14.02;;;2.80;;
18929;SDS011;43305;52.186;5.598;2022-08-03T08:42:53;13.35;;;2.60;;
18929;SDS011;43305;52.186;5.598;2022-08-03T08:45:23;14.63;;;2.00;;
18929;SDS011;43305;52.186;5.598;2022-08-03T08:48:05;20.13;;;3.40;;
18929;SDS011;43305;52.186;5.598;2022-08-03T08:50:34;20.73;;;2.97;;
18929;SDS011;43305;52.186;5.598;2022-08-03T08:53:02;23.40;;;2.83;;
18929;SDS011;43305;52.186;5.598;2022-08-03T08:55:33;20.20;;;2.95;;
18929;SDS011;43305;52.186;5.598;2022-08-03T08:58:01;16.48;;;2.75;;
18929;SDS011;43305;52.186;5.598;2022-08-03T09:00:31;18.30;;;3.35;;
18929;SDS011;43305;52.186;5.598;2022-08-03T09:02:58;17.58;;;3.10;;
18929;SDS011;43305;52.186;5.598;2022-08-03T09:05:28;13.38;;;3.30;;
18929;SDS011;43305;52.186;5.598;2022-08-03T09:07:57;19.77;;;3.17;;
18929;SDS011;43305;52.186;5.598;2022-08-03T09:10:24;14.02;;;2.92;;
18929;SDS011;43305;52.186;5.598;2022-08-03T09:12:51;20.00;;;2.85;;
18929;SDS011;43305;52.186;5.598;2022-08-03T09:15:19;13.75;;;3.10;;
18929;SDS011;43305;52.186;5.598;2022-08-03T09:17:51;11.93;;;2.47;;
18929;SDS011;43305;52.186;5.598;2022-08-03T09:20:20;14.02;;;2.97;;
18929;SDS011;43305;52.186;5.598;2022-08-03T09:22:50;15.60;;;3.10;;
18929;SDS011;43305;52.186;5.598;2022-08-03T09:25:18;14.07;;;2.50;;
18929;SDS011;43305;52.186;5.598;2022-08-03T09:27:45;15.55;;;2.50;;
18929;SDS011;43305;52.186;5.598;2022-08-03T09:30:12;17.50;;;2.63;;
18929;SDS011;43305;52.186;5.598;2022-08-03T09:32:40;20.58;;;3.55;;
18929;SDS011;43305;52.186;5.598;2022-08-03T09:35:10;10.50;;;2.55;;
18929;SDS011;43305;52.186;5.598;2022-08-03T09:37:37;7.38;;;1.83;;
18929;SDS011;43305;52.186;5.598;2022-08-03T09:40:04;13.00;;;2.08;;
18929;SDS011;43305;52.186;5.598;2022-08-03T09:42:32;16.25;;;2.47;;
18929;SDS011;43305;52.186;5.598;2022-08-03T09:45:02;9.38;;;2.35;;
18929;SDS011;43305;52.186;5.598;2022-08-03T09:47:30;19.13;;;2.60;;
18929;SDS011;43305;52.186;5.598;2022-08-03T09:50:00;16.83;;;2.85;;
18929;SDS011;43305;52.186;5.598;2022-08-03T09:52:31;14.20;;;2.75;;
18929;SDS011;43305;52.186;5.598;2022-08-03T09:54:59;18.38;;;3.15;;
18929;SDS011;43305;52.186;5.598;2022-08-03T09:57:27;10.07;;;2.47;;
18929;SDS011;43305;52.186;5.598;2022-08-03T10:00:04;15.20;;;2.88;;
18929;SDS011;43305;52.186;5.598;2022-08-03T10:02:35;8.75;;;1.80;;
18929;SDS011;43305;52.186;5.598;2022-08-03T10:05:03;8.57;;;1.58;;
18929;SDS011;43305;52.186;5.598;2022-08-03T10:07:40;9.38;;;1.60;;
18929;SDS011;43305;52.186;5.598;2022-08-03T10:10:08;7.38;;;1.55;;
18929;SDS011;43305;52.186;5.598;2022-08-03T10:12:36;11.95;;;2.28;;
18929;SDS011;43305;52.186;5.598;2022-08-03T10:15:03;14.85;;;2.13;;
18929;SDS011;43305;52.186;5.598;2022-08-03T10:17:31;9.40;;;2.53;;
18929;SDS011;43305;52.186;5.598;2022-08-03T10:19:58;10.07;;;1.98;;
18929;SDS011;43305;52.186;5.598;2022-08-03T10:22:26;6.60;;;1.80;;
18929;SDS011;43305;52.186;5.598;2022-08-03T10:24:55;5.32;;;1.25;;
18929;SDS011;43305;52.186;5.598;2022-08-03T10:27:25;9.85;;;1.75;;
18929;SDS011;43305;52.186;5.598;2022-08-03T10:29:58;5.68;;;1.58;;
18929;SDS011;43305;52.186;5.598;2022-08-03T10:32:29;7.07;;;1.88;;
18929;SDS011;43305;52.186;5.598;2022-08-03T10:35:02;7.80;;;1.75;;
18929;SDS011;43305;52.186;5.598;2022-08-03T10:37:31;11.90;;;1.73;;
18929;SDS011;43305;52.186;5.598;2022-08-03T10:40:11;14.10;;;2.28;;
18929;SDS011;43305;52.186;5.598;2022-08-03T10:42:41;2.78;;;1.02;;
18929;SDS011;43305;52.186;5.598;2022-08-03T10:45:12;8.57;;;1.63;;
18929;SDS011;43305;52.186;5.598;2022-08-03T10:47:43;5.47;;;1.20;;
18929;SDS011;43305;52.186;5.598;2022-08-03T10:50:10;17.27;;;1.65;;
18929;SDS011;43305;52.186;5.598;2022-08-03T10:52:52;6.10;;;1.27;;
18929;SDS011;43305;52.186;5.598;2022-08-03T11:01:12;5.88;;;1.30;;
18929;SDS011;43305;52.186;5.598;2022-08-03T11:06:41;5.30;;;0.80;;
18929;SDS011;43305;52.186;5.598;2022-08-03T11:09:15;5.40;;;1.10;;
18929;SDS011;43305;52.186;5.598;2022-08-03T11:11:45;8.98;;;1.30;;
18929;SDS011;43305;52.186;5.598;2022-08-03T11:14:14;7.80;;;1.00;;
18929;SDS011;43305;52.186;5.598;2022-08-03T11:16:44;8.00;;;1.45;;
18929;SDS011;43305;52.186;5.598;2022-08-03T11:19:12;10.02;;;1.42;;
18929;SDS011;43305;52.186;5.598;2022-08-03T11:27:24;13.57;;;1.30;;
18929;SDS011;43305;52.186;5.598;2022-08-03T11:29:53;4.90;;;1.20;;
18929;SDS011;43305;52.186;5.598;2022-08-03T11:35:18;9.88;;;1.58;;
18929;SDS011;43305;52.186;5.598;2022-08-03T11:40:31;9.60;;;1.33;;
18929;SDS011;43305;52.186;5.598;2022-08-03T11:43:01;7.55;;;1.50;;
18929;SDS011;43305;52.186;5.598;2022-08-03T11:45:28;10.13;;;1.50;;
18929;SDS011;43305;52.186;5.598;2022-08-03T11:47:56;4.35;;;1.40;;
18929;SDS011;43305;52.186;5.598;2022-08-03T11:50:24;6.53;;;1.60;;
18929;SDS011;43305;52.186;5.598;2022-08-03T11:52:51;7.70;;;1.27;;
18929;SDS011;43305;52.186;5.598;2022-08-03T11:55:19;7.00;;;1.52;;
18929;SDS011;43305;52.186;5.598;2022-08-03T11:57:47;5.43;;;1.05;;
18929;SDS011;43305;52.186;5.598;2022-08-03T12:03:00;8.77;;;1.25;;
18929;SDS011;43305;52.186;5.598;2022-08-03T12:05:36;7.63;;;1.35;;
18929;SDS011;43305;52.186;5.598;2022-08-03T12:08:06;4.57;;;1.10;;
18929;SDS011;43305;52.186;5.598;2022-08-03T12:10:34;3.05;;;0.90;;
18929;SDS011;43305;52.186;5.598;2022-08-03T12:13:02;7.90;;;1.45;;
18929;SDS011;43305;52.186;5.598;2022-08-03T12:15:34;6.68;;;1.00;;
18929;SDS011;43305;52.186;5.598;2022-08-03T12:18:03;6.32;;;1.35;;
18929;SDS011;43305;52.186;5.598;2022-08-03T12:20:38;8.20;;;1.60;;
18929;SDS011;43305;52.186;5.598;2022-08-03T12:23:07;14.05;;;1.52;;
18929;SDS011;43305;52.186;5.598;2022-08-03T12:25:35;5.22;;;1.00;;
18929;SDS011;43305;52.186;5.598;2022-08-03T12:28:06;6.40;;;1.10;;
18929;SDS011;43305;52.186;5.598;2022-08-03T12:30:37;5.65;;;1.35;;
18929;SDS011;43305;52.186;5.598;2022-08-03T12:33:12;4.70;;;1.20;;
18929;SDS011;43305;52.186;5.598;2022-08-03T12:35:40;6.07;;;1.30;;
18929;SDS011;43305;52.186;5.598;2022-08-03T12:38:07;5.78;;;1.23;;
18929;SDS011;43305;52.186;5.598;2022-08-03T12:40:35;10.43;;;1.48;;
18929;SDS011;43305;52.186;5.598;2022-08-03T12:43:09;3.42;;;0.95;;
18929;SDS011;43305;52.186;5.598;2022-08-03T12:45:39;9.73;;;1.80;;
18929;SDS011;43305;52.186;5.598;2022-08-03T12:48:07;7.75;;;1.38;;
18929;SDS011;43305;52.186;5.598;2022-08-03T12:50:37;4.32;;;1.25;;
18929;SDS011;43305;52.186;5.598;2022-08-03T12:53:06;5.30;;;1.40;;
18929;SDS011;43305;52.186;5.598;2022-08-03T12:55:35;5.40;;;1.17;;
18929;SDS011;43305;52.186;5.598;2022-08-03T12:58:03;7.85;;;1.50;;
18929;SDS011;43305;52.186;5.598;2022-08-03T13:00:32;7.60;;;1.60;;
18929;SDS011;43305;52.186;5.598;2022-08-03T13:03:02;17.58;;;1.77;;
18929;SDS011;43305;52.186;5.598;2022-08-03T13:05:31;9.52;;;1.60;;
18929;SDS011;43305;52.186;5.598;2022-08-03T13:08:16;6.20;;;1.20;;
18929;SDS011;43305;52.186;5.598;2022-08-03T13:10:44;6.32;;;1.20;;
18929;SDS011;43305;52.186;5.598;2022-08-03T13:13:11;4.13;;;1.30;;
18929;SDS011;43305;52.186;5.598;2022-08-03T13:15:38;2.95;;;1.10;;
18929;SDS011;43305;52.186;5.598;2022-08-03T13:18:06;7.32;;;1.60;;
18929;SDS011;43305;52.186;5.598;2022-08-03T13:20:34;8.98;;;1.30;;
18929;SDS011;43305;52.186;5.598;2022-08-03T13:23:01;4.95;;;1.30;;
18929;SDS011;43305;52.186;5.598;2022-08-03T13:25:45;6.35;;;1.67;;
18929;SDS011;43305;52.186;5.598;2022-08-03T13:28:12;3.40;;;1.38;;
18929;SDS011;43305;52.186;5.598;2022-08-03T13:30:38;2.10;;;1.20;;
18929;SDS011;43305;52.186;5.598;2022-08-03T13:33:08;4.15;;;1.35;;
18929;SDS011;43305;52.186;5.598;2022-08-03T13:35:35;5.43;;;1.30;;
18929;SDS011;43305;52.186;5.598;2022-08-03T13:38:02;9.35;;;1.80;;
18929;SDS011;43305;52.186;5.598;2022-08-03T13:40:29;2.92;;;1.30;;
18929;SDS011;43305;52.186;5.598;2022-08-03T13:42:57;3.70;;;1.35;;
18929;SDS011;43305;52.186;5.598;2022-08-03T13:45:23;4.85;;;1.48;;
18929;SDS011;43305;52.186;5.598;2022-08-03T13:47:51;2.10;;;1.27;;
18929;SDS011;43305;52.186;5.598;2022-08-03T13:50:20;5.50;;;1.30;;
18929;SDS011;43305;52.186;5.598;2022-08-03T13:52:47;3.30;;;1.45;;
18929;SDS011;43305;52.186;5.598;2022-08-03T13:55:14;14.68;;;1.80;;
18929;SDS011;43305;52.186;5.598;2022-08-03T13:57:40;3.40;;;1.42;;
18929;SDS011;43305;52.186;5.598;2022-08-03T14:00:08;2.55;;;1.48;;
18929;SDS011;43305;52.186;5.598;2022-08-03T14:02:36;5.78;;;1.90;;
18929;SDS011;43305;52.186;5.598;2022-08-03T14:05:03;4.25;;;2.03;;
18929;SDS011;43305;52.186;5.598;2022-08-03T14:07:33;5.32;;;2.25;;
18929;SDS011;43305;52.186;5.598;2022-08-03T14:10:00;5.70;;;2.15;;
18929;SDS011;43305;52.186;5.598;2022-08-03T14:12:27;3.53;;;1.80;;
18929;SDS011;43305;52.186;5.598;2022-08-03T14:14:57;6.80;;;2.10;;
18929;SDS011;43305;52.186;5.598;2022-08-03T14:17:24;6.13;;;2.13;;
18929;SDS011;43305;52.186;5.598;2022-08-03T14:19:50;4.50;;;1.92;;
18929;SDS011;43305;52.186;5.598;2022-08-03T14:22:17;3.95;;;1.90;;
18929;SDS011;43305;52.186;5.598;2022-08-03T14:24:45;4.18;;;1.88;;
18929;SDS011;43305;52.186;5.598;2022-08-03T14:27:12;4.43;;;1.83;;
18929;SDS011;43305;52.186;5.598;2022-08-03T14:29:42;8.75;;;2.20;;
18929;SDS011;43305;52.186;5.598;2022-08-03T14:32:09;4.30;;;2.28;;
18929;SDS011;43305;52.186;5.598;2022-08-03T14:34:35;5.35;;;2.25;;
18929;SDS011;43305;52.186;5.598;2022-08-03T14:37:03;7.90;;;2.30;;
18929;SDS011;43305;52.186;5.598;2022-08-03T14:39:31;8.57;;;1.95;;
18929;SDS011;43305;52.186;5.598;2022-08-03T14:42:00;5.22;;;1.75;;
18929;SDS011;43305;52.186;5.598;2022-08-03T14:44:26;3.90;;;1.98;;
18929;SDS011;43305;52.186;5.598;2022-08-03T14:46:53;7.20;;;2.05;;
18929;SDS011;43305;52.186;5.598;2022-08-03T14:49:22;5.55;;;1.73;;
18929;SDS011;43305;52.186;5.598;2022-08-03T14:51:50;7.80;;;1.70;;
18929;SDS011;43305;52.186;5.598;2022-08-03T14:54:20;3.35;;;1.65;;
18929;SDS011;43305;52.186;5.598;2022-08-03T14:56:47;13.50;;;2.17;;
18929;SDS011;43305;52.186;5.598;2022-08-03T14:59:16;3.53;;;1.75;;
18929;SDS011;43305;52.186;5.598;2022-08-03T15:01:43;4.22;;;1.60;;
18929;SDS011;43305;52.186;5.598;2022-08-03T15:04:09;4.80;;;1.60;;
18929;SDS011;43305;52.186;5.598;2022-08-03T15:06:36;5.93;;;1.83;;
18929;SDS011;43305;52.186;5.598;2022-08-03T15:09:03;5.22;;;1.80;;
18929;SDS011;43305;52.186;5.598;2022-08-03T15:11:30;4.70;;;1.60;;
18929;SDS011;43305;52.186;5.598;2022-08-03T15:13:59;4.25;;;1.58;;